This is the latest recevied weather packets stored in our database for station/object HASTNG-WX. If no packets are shown the sender has not sent any weather packets the latest 1 day(s).
| Time | Temp. | Humidity | Pressure | Rain* | Wind** | Luminosity | Snow |
|---|---|---|---|---|---|---|---|
| 1778098535 | 11.67° C | 34% | 983.8 hPa | 0 mm | - | - | - |
| 1778094935 | 12.22° C | 34% | 983.8 hPa | 0 mm | - | - | - |
| 1778094058 | 11.67° C | 34% | 983.8 hPa | 0 mm | - | - | - |
| 1778088652 | 11.67° C | 35% | 984.3 hPa | 0 mm | - | - | - |
| 1778081448 | 9.44° C | 48% | 983.6 hPa | 0 mm | - | - | - |
| 1778078735 | 8.89° C | 53% | 983.5 hPa | 0 mm | - | - | - |
| 1778077852 | 8.33° C | 53% | 983.5 hPa | 0 mm | - | - | - |
| 1778075131 | 7.78° C | 58% | 982.5 hPa | 0 mm | - | - | - |
| 1778073333 | 6.67° C | 58% | 982.6 hPa | 0 mm | - | - | - |
| 1778072459 | 6.67° C | 58% | 982.6 hPa | 0 mm | - | - | - |
| 1778069736 | 5° C | 69% | 981.6 hPa | 0 mm | - | - | - |
| 1778065261 | 2.78° C | 76% | 980.9 hPa | 0 mm | - | - | - |
| 1778058932 | 3.89° C | 72% | 980.1 hPa | 0 mm | - | - | - |
| 1778058064 | 4.44° C | 72% | 980.1 hPa | 0 mm | - | - | - |
| 1778057132 | 4.44° C | 69% | 979.5 hPa | 0 mm | - | - | - |
| 1778056246 | 4.44° C | 74% | 980.1 hPa | 0 mm | - | - | - |
| 1778052650 | 5.56° C | 74% | 980.1 hPa | 0 mm | - | - | - |
| 1778051731 | 5.56° C | 74% | 980.1 hPa | 0 mm | - | - | - |
| 1778050856 | 5.56° C | 74% | 980.1 hPa | 0 mm | - | - | - |
| 1778049049 | 6.11° C | 71% | 980.2 hPa | 0 mm | - | - | - |
| 1778048132 | 6.11° C | 71% | 980.2 hPa | 0 mm | - | - | - |
| 1778045447 | 6.67° C | 70% | 980.3 hPa | 0 mm | - | - | - |
| 1778043664 | 6.67° C | 70% | 980.3 hPa | 0 mm | - | - | - |
| 1778042732 | 7.22° C | 65% | 981 hPa | 0 mm | - | - | - |
| 1778041847 | 7.22° C | 68% | 980.5 hPa | 0 mm | - | - | - |
* Rain latest hour (hover to see other rain measurements)
** Current wind speed in m/s (hover to see current wind gust speed)